Time;durP1;ratioP1;P1;durP2;ratioP2;P2;SDS_P1;SDS_P2;PMS_P1;PMS_P2;Temp;Humidity;BMP_temperature;BMP_pressure;BME280_temperature;BME280_humidity;BME280_pressure;Samples;Min_cycle;Max_cycle;Signal;HPM_P1;HPM_P2
2021/12/25 00:00:34;;;;;;;11.07;10.07;;;10.10;99.90;;;;;;5059343;28;20665;-77
2021/12/25 00:03:01;;;;;;;10.40;9.50;;;10.10;99.90;;;;;;5063161;28;20711;-77
2021/12/25 00:05:28;;;;;;;10.73;9.73;;;10.20;99.90;;;;;;5064930;28;20223;-77
2021/12/25 00:07:55;;;;;;;10.80;9.70;;;10.10;99.90;;;;;;5059694;28;20210;-77
2021/12/25 00:10:22;;;;;;;10.00;9.13;;;10.10;99.90;;;;;;5062729;28;20203;-77
2021/12/25 00:12:53;;;;;;;10.57;9.65;;;10.10;99.90;;;;;;5052965;28;20254;-77
2021/12/25 00:15:20;;;;;;;9.93;9.02;;;10.10;99.90;;;;;;5052317;28;20221;-77
2021/12/25 00:17:47;;;;;;;9.63;8.82;;;10.10;99.90;;;;;;5055013;28;20337;-77
2021/12/25 00:20:14;;;;;;;9.95;9.05;;;10.10;99.90;;;;;;5063421;28;20678;-77
2021/12/25 00:22:41;;;;;;;11.10;10.00;;;10.10;99.90;;;;;;5061863;28;20204;-77
2021/12/25 00:25:09;;;;;;;10.30;9.27;;;10.10;99.90;;;;;;5053251;28;20256;-77
2021/12/25 00:27:45;;;;;;;10.90;9.80;;;10.10;99.90;;;;;;5059356;28;20257;-77
2021/12/25 00:30:20;;;;;;;11.35;10.20;;;10.00;99.90;;;;;;5057414;28;20685;-77
2021/12/25 00:33:01;;;;;;;10.40;9.50;;;10.00;99.90;;;;;;5067772;28;20216;-76
2021/12/25 00:35:29;;;;;;;11.13;10.13;;;10.00;99.90;;;;;;5059847;28;20219;-77
2021/12/25 00:37:56;;;;;;;11.00;9.98;;;9.90;99.90;;;;;;5057234;28;20633;-78
2021/12/25 00:40:23;;;;;;;12.00;10.85;;;9.80;99.90;;;;;;5053105;28;20523;-77
2021/12/25 00:42:50;;;;;;;10.20;9.27;;;9.80;99.90;;;;;;5065213;28;20197;-77
2021/12/25 00:45:19;;;;;;;12.10;10.93;;;9.80;99.90;;;;;;5051166;28;20248;-77
2021/12/25 00:47:46;;;;;;;12.02;10.25;;;9.80;99.90;;;;;;5061143;28;20202;-77
2021/12/25 00:50:13;;;;;;;12.90;11.70;;;9.80;99.90;;;;;;5054720;28;20616;-77
2021/12/25 00:52:40;;;;;;;13.52;12.20;;;9.80;99.90;;;;;;5062382;28;20189;-77
2021/12/25 00:55:08;;;;;;;11.40;10.40;;;9.90;99.90;;;;;;5051156;28;20310;-78
2021/12/25 00:57:37;;;;;;;11.82;10.73;;;9.90;99.90;;;;;;5065321;28;20241;-77
2021/12/25 01:00:09;;;;;;;13.05;11.85;;;9.90;99.90;;;;;;5058452;28;20303;-78
2021/12/25 01:02:40;;;;;;;12.82;11.63;;;10.00;99.90;;;;;;5050702;28;20204;-78
2021/12/25 01:05:09;;;;;;;13.45;12.13;;;10.00;99.90;;;;;;5051311;28;20222;-77
2021/12/25 01:07:37;;;;;;;14.70;12.13;;;10.00;99.90;;;;;;5060692;28;20639;-77
2021/12/25 01:10:08;;;;;;;15.50;11.73;;;10.00;99.90;;;;;;5051142;28;20318;-77
2021/12/25 01:12:50;;;;;;;13.85;12.48;;;10.10;99.90;;;;;;5052753;28;20196;-77
2021/12/25 01:15:24;;;;;;;13.73;12.27;;;10.10;99.90;;;;;;5059543;28;20217;-77
2021/12/25 01:18:29;;;;;;;13.90;12.63;;;10.00;99.90;;;;;;5056043;28;20210;-77
2021/12/25 01:21:17;;;;;;;12.88;11.77;;;10.00;99.90;;;;;;5060281;28;20219;-77
2021/12/25 01:24:18;;;;;;;13.13;11.90;;;9.90;99.90;;;;;;5058716;28;20227;-77
2021/12/25 01:27:09;;;;;;;14.40;13.10;;;9.80;99.90;;;;;;5062775;28;20259;-77
2021/12/25 01:29:43;;;;;;;14.80;13.40;;;9.60;99.90;;;;;;5050743;28;20582;-77
2021/12/25 01:32:46;;;;;;;13.77;12.57;;;9.60;99.90;;;;;;5063113;28;20660;-77
2021/12/25 01:38:08;;;;;;;15.63;14.23;;;9.50;99.90;;;;;;5051083;28;20226;-76
2021/12/25 01:40:56;;;;;;;15.40;14.10;;;9.40;99.90;;;;;;5051906;28;20199;-77
2021/12/25 01:48:51;;;;;;;15.52;14.02;;;9.30;99.90;;;;;;5049685;28;20666;-77
2021/12/25 01:51:20;;;;;;;16.00;14.60;;;9.30;99.90;;;;;;5050789;28;20195;-77
2021/12/25 01:53:47;;;;;;;14.90;13.50;;;9.30;99.90;;;;;;5068228;28;20282;-76
2021/12/25 01:56:15;;;;;;;16.10;14.60;;;9.30;99.90;;;;;;5056336;28;20233;-77
2021/12/25 01:58:42;;;;;;;16.30;14.73;;;9.30;99.90;;;;;;5064657;28;20219;-77
2021/12/25 02:01:11;;;;;;;17.52;15.90;;;9.30;99.90;;;;;;5049490;28;20650;-76
2021/12/25 02:03:39;;;;;;;18.33;16.63;;;9.30;99.90;;;;;;5052426;28;20292;-77
2021/12/25 02:06:09;;;;;;;17.50;15.80;;;9.20;99.90;;;;;;5063257;28;20304;-77
2021/12/25 02:08:38;;;;;;;19.77;18.00;;;9.30;99.90;;;;;;5057782;28;20246;-77
2021/12/25 02:11:05;;;;;;;18.60;16.90;;;9.30;99.90;;;;;;5052089;28;20298;-77
2021/12/25 02:13:33;;;;;;;18.98;17.15;;;9.30;99.90;;;;;;5062919;28;20283;-77
2021/12/25 02:16:04;;;;;;;20.00;18.00;;;9.40;99.90;;;;;;5050479;28;20929;-77
2021/12/25 02:18:44;;;;;;;17.25;15.65;;;9.20;99.90;;;;;;5056978;28;20227;-77
2021/12/25 02:21:18;;;;;;;17.73;16.02;;;9.20;99.90;;;;;;5051383;28;20194;-77
2021/12/25 02:23:45;;;;;;;18.70;16.95;;;9.10;99.90;;;;;;5052560;28;20209;-76
2021/12/25 02:26:12;;;;;;;19.85;18.05;;;9.10;99.90;;;;;;5051081;28;20222;-77
2021/12/25 02:28:39;;;;;;;45.95;21.60;;;8.90;99.90;;;;;;5050395;28;20529;-77
2021/12/25 02:31:09;;;;;;;24.10;19.05;;;8.80;99.90;;;;;;5056199;28;20202;-77
2021/12/25 02:33:37;;;;;;;27.20;18.30;;;8.80;99.90;;;;;;5051263;28;20199;-76
2021/12/25 02:36:05;;;;;;;16.77;15.38;;;8.70;99.90;;;;;;5063710;28;20296;-76
2021/12/25 02:38:33;;;;;;;19.98;18.10;;;8.70;99.90;;;;;;5064689;28;20233;-76
2021/12/25 02:41:01;;;;;;;17.30;15.80;;;8.70;99.90;;;;;;5065726;28;20354;-76
2021/12/25 02:43:28;;;;;;;16.77;15.25;;;8.70;99.90;;;;;;5052898;28;21430;-76
2021/12/25 02:45:56;;;;;;;15.60;14.30;;;8.80;99.90;;;;;;5060016;28;20405;-77
2021/12/25 02:48:24;;;;;;;29.33;15.55;;;8.80;99.90;;;;;;5057288;28;20198;-76
2021/12/25 02:50:51;;;;;;;144.52;23.08;;;8.80;99.90;;;;;;5053741;28;20719;-76
2021/12/25 02:53:18;;;;;;;22.95;14.73;;;8.70;99.90;;;;;;5070463;28;20285;-76
2021/12/25 02:55:47;;;;;;;61.80;17.35;;;8.60;99.90;;;;;;5057645;28;20961;-76
2021/12/25 02:58:19;;;;;;;16.27;14.75;;;8.60;99.90;;;;;;5064500;28;20331;-76
2021/12/25 03:00:48;;;;;;;40.28;17.70;;;8.60;99.90;;;;;;5052608;28;20631;-75
2021/12/25 03:03:16;;;;;;;16.80;15.40;;;8.50;99.90;;;;;;5057883;28;20639;-76
2021/12/25 03:05:43;;;;;;;37.60;17.80;;;8.50;99.90;;;;;;5053911;28;20332;-76
2021/12/25 03:08:12;;;;;;;18.58;16.73;;;8.50;99.90;;;;;;5064474;28;20605;-75
2021/12/25 03:10:39;;;;;;;28.48;17.67;;;8.50;99.90;;;;;;5054830;28;20197;-76
2021/12/25 03:13:29;;;;;;;18.13;16.33;;;8.50;99.90;;;;;;5052556;28;20806;-76
2021/12/25 03:15:56;;;;;;;17.38;15.85;;;8.50;99.90;;;;;;5073172;28;20312;-76
2021/12/25 03:18:26;;;;;;;17.48;15.88;;;8.60;99.90;;;;;;5062896;28;20222;-76
2021/12/25 03:20:56;;;;;;;17.65;16.10;;;8.70;99.90;;;;;;5052599;28;20264;-77
2021/12/25 03:23:26;;;;;;;18.73;17.08;;;8.70;99.90;;;;;;5066847;28;20243;-76
2021/12/25 03:25:55;;;;;;;17.80;16.23;;;8.80;99.90;;;;;;5063673;28;20217;-76
2021/12/25 03:28:25;;;;;;;17.77;16.20;;;8.90;99.90;;;;;;5059559;28;20207;-76
2021/12/25 03:30:52;;;;;;;18.60;16.90;;;9.00;99.90;;;;;;5053612;28;20200;-75
2021/12/25 03:33:21;;;;;;;16.38;14.98;;;9.00;99.90;;;;;;5066603;28;20619;-75
2021/12/25 03:35:48;;;;;;;18.15;16.45;;;9.10;99.90;;;;;;5055052;28;20306;-75
2021/12/25 03:38:19;;;;;;;17.75;16.05;;;9.10;99.90;;;;;;5065056;28;20231;-75
2021/12/25 03:40:47;;;;;;;17.98;16.27;;;9.10;99.90;;;;;;5080467;28;20667;-75
2021/12/25 03:43:15;;;;;;;18.30;16.65;;;9.10;99.90;;;;;;5074443;28;20204;-75
2021/12/25 03:45:44;;;;;;;17.30;15.70;;;9.10;99.90;;;;;;5058279;28;20777;-75
2021/12/25 03:48:15;;;;;;;17.45;15.85;;;9.10;99.90;;;;;;5063362;28;20205;-75
2021/12/25 03:57:35;;;;;;;17.40;15.90;;;9.20;99.90;;;;;;5063254;28;20278;-74
2021/12/25 03:59:16;;;;;;;17.45;15.75;;;9.10;99.90;;;;;;5035453;28;20563;-76
2021/12/25 04:01:51;;;;;;;16.92;15.50;;;9.10;99.90;;;;;;5053537;28;20714;-76
2021/12/25 04:04:22;;;;;;;17.77;16.10;;;9.20;99.90;;;;;;5056741;28;20740;-76
2021/12/25 04:06:54;;;;;;;18.02;16.45;;;9.20;99.90;;;;;;5066033;28;20297;-75
2021/12/25 04:09:25;;;;;;;16.40;15.00;;;9.20;99.90;;;;;;5052764;28;20205;-76
2021/12/25 04:11:53;;;;;;;16.90;15.40;;;9.20;99.90;;;;;;5056727;28;20199;-75
2021/12/25 04:14:20;;;;;;;17.45;15.95;;;9.20;99.90;;;;;;5058216;28;20214;-76
2021/12/25 04:16:49;;;;;;;15.23;13.80;;;9.30;99.90;;;;;;5057682;28;20291;-76
2021/12/25 04:19:16;;;;;;;15.25;13.95;;;9.30;99.90;;;;;;5058668;28;20249;-76
2021/12/25 04:21:51;;;;;;;14.88;13.48;;;9.40;99.90;;;;;;5051530;28;20249;-76
2021/12/25 04:24:18;;;;;;;17.40;15.70;;;9.30;99.90;;;;;;5059982;28;20571;-76
2021/12/25 04:26:47;;;;;;;16.20;14.75;;;9.30;99.90;;;;;;5054689;28;20296;-76
2021/12/25 04:29:36;;;;;;;14.82;13.52;;;9.30;99.90;;;;;;5052547;28;20211;-76
2021/12/25 04:32:33;;;;;;;19.38;13.43;;;9.20;99.90;;;;;;5064042;28;20200;-76
2021/12/25 04:49:40;;;;;;;105.65;17.08;;;8.70;99.90;;;;;;5060350;28;20786;-76
2021/12/25 05:03:19;;;;;;;16.48;13.50;;;8.50;99.90;;;;;;5013980;28;20195;-76
2021/12/25 05:05:47;;;;;;;13.52;12.27;;;8.40;99.90;;;;;;5054546;28;20278;-76
2021/12/25 05:08:14;;;;;;;33.58;14.23;;;8.40;99.90;;;;;;5067862;28;20235;-76
2021/12/25 05:10:41;;;;;;;29.40;14.15;;;8.40;99.90;;;;;;5060038;28;20199;-76
2021/12/25 05:13:08;;;;;;;15.77;11.70;;;8.40;99.90;;;;;;5056119;28;20199;-76
2021/12/25 05:15:35;;;;;;;113.15;19.85;;;8.30;99.90;;;;;;5054349;28;20706;-76
2021/12/25 05:18:02;;;;;;;47.25;15.05;;;8.30;99.90;;;;;;5056773;28;20221;-76
2021/12/25 05:20:29;;;;;;;16.70;11.57;;;8.20;99.90;;;;;;5055924;28;20702;-76
2021/12/25 05:22:58;;;;;;;15.68;12.73;;;8.20;99.90;;;;;;5059262;28;20211;-76
2021/12/25 05:25:25;;;;;;;13.70;12.50;;;8.10;99.90;;;;;;5058801;28;20218;-76
2021/12/25 05:27:52;;;;;;;13.85;12.13;;;8.20;99.90;;;;;;5051680;28;20276;-75
2021/12/25 05:30:19;;;;;;;21.92;13.73;;;8.20;99.90;;;;;;5061063;28;20679;-76
2021/12/25 05:32:46;;;;;;;15.20;13.90;;;8.20;99.90;;;;;;5057261;28;20199;-77
2021/12/25 05:35:13;;;;;;;53.72;16.20;;;8.30;99.90;;;;;;5061560;28;20217;-76
2021/12/25 05:37:40;;;;;;;26.00;14.73;;;8.30;99.90;;;;;;5050068;28;20623;-76
2021/12/25 05:40:12;;;;;;;25.38;14.10;;;8.30;99.90;;;;;;5054101;28;20719;-76
2021/12/25 05:42:39;;;;;;;16.30;14.73;;;8.30;99.90;;;;;;5051455;28;21019;-76
2021/12/25 05:45:09;;;;;;;18.77;13.73;;;8.30;99.90;;;;;;5057545;28;20214;-76
2021/12/25 05:47:36;;;;;;;15.55;14.10;;;8.30;99.90;;;;;;5061367;28;20644;-77
2021/12/25 05:50:03;;;;;;;16.98;14.15;;;8.30;99.90;;;;;;5049313;28;20193;-76
2021/12/25 05:52:30;;;;;;;15.13;13.63;;;8.30;99.90;;;;;;5053409;28;20202;-75
2021/12/25 05:54:57;;;;;;;17.15;14.32;;;8.40;99.90;;;;;;5060534;28;20219;-76
2021/12/25 05:57:25;;;;;;;15.85;14.20;;;8.40;99.90;;;;;;5064899;28;20197;-76
2021/12/25 05:59:52;;;;;;;14.30;13.00;;;8.40;99.90;;;;;;5052005;28;20221;-76
2021/12/25 06:02:19;;;;;;;16.65;15.05;;;8.40;99.90;;;;;;5056523;28;20225;-76
2021/12/25 06:04:46;;;;;;;14.77;13.40;;;8.50;99.90;;;;;;5051864;28;20220;-76
2021/12/25 06:07:13;;;;;;;17.00;14.98;;;8.40;99.90;;;;;;5066876;28;20633;-76
2021/12/25 06:09:40;;;;;;;15.10;13.70;;;8.40;99.90;;;;;;5057479;28;20202;-75
2021/12/25 06:12:10;;;;;;;14.18;12.95;;;8.40;99.90;;;;;;5072353;28;20225;-76
2021/12/25 06:14:38;;;;;;;16.58;14.85;;;8.40;99.90;;;;;;5062022;28;20221;-76
2021/12/25 06:17:05;;;;;;;13.13;11.93;;;8.40;99.90;;;;;;5073895;28;20198;-76
2021/12/25 06:19:32;;;;;;;11.63;10.68;;;8.40;99.90;;;;;;5072808;28;20232;-76
2021/12/25 06:21:59;;;;;;;13.05;11.88;;;8.50;99.90;;;;;;5074516;28;20633;-75
2021/12/25 06:24:29;;;;;;;11.50;10.50;;;8.40;99.90;;;;;;5058617;28;20215;-76
2021/12/25 06:26:56;;;;;;;11.75;10.77;;;8.50;99.90;;;;;;5062840;28;20628;-76
2021/12/25 06:29:23;;;;;;;10.55;9.55;;;8.50;99.90;;;;;;5068057;28;20246;-75
2021/12/25 06:31:52;;;;;;;10.70;9.80;;;8.60;99.90;;;;;;5061316;28;20226;-76
2021/12/25 06:34:19;;;;;;;9.90;9.18;;;8.60;99.90;;;;;;5059500;28;20226;-76
2021/12/25 06:36:46;;;;;;;10.00;9.20;;;8.60;99.90;;;;;;5054311;28;20206;-76
2021/12/25 06:39:15;;;;;;;9.68;8.68;;;8.60;99.90;;;;;;5055823;28;20223;-76
2021/12/25 06:41:43;;;;;;;9.85;9.05;;;8.60;99.90;;;;;;5057015;28;20198;-76
2021/12/25 06:44:11;;;;;;;8.90;8.10;;;8.70;99.90;;;;;;5055914;28;20253;-76
2021/12/25 06:46:38;;;;;;;6.40;5.90;;;8.70;99.90;;;;;;5053886;28;20305;-76
2021/12/25 06:49:06;;;;;;;8.40;7.70;;;8.80;99.90;;;;;;5052714;28;20231;-76
2021/12/25 06:51:35;;;;;;;7.00;6.50;;;8.90;99.90;;;;;;5053396;28;20262;-76
2021/12/25 06:54:03;;;;;;;6.60;6.10;;;8.90;99.90;;;;;;5054009;28;20728;-76
2021/12/25 06:56:30;;;;;;;5.13;4.72;;;9.00;99.90;;;;;;5061674;28;20216;-76
2021/12/25 06:58:57;;;;;;;6.43;5.93;;;9.00;99.90;;;;;;5055045;28;20827;-76
2021/12/25 07:01:23;;;;;;;6.97;6.38;;;9.00;99.90;;;;;;5054300;28;20619;-76
2021/12/25 07:03:51;;;;;;;6.22;5.63;;;9.10;99.90;;;;;;5055324;28;20218;-76
2021/12/25 07:06:21;;;;;;;5.25;4.85;;;9.10;99.90;;;;;;5056776;28;20885;-76
2021/12/25 07:08:48;;;;;;;5.10;4.70;;;9.10;99.90;;;;;;5052021;28;20289;-76
2021/12/25 07:11:15;;;;;;;5.10;4.70;;;9.10;99.90;;;;;;5058848;28;20201;-76
2021/12/25 07:13:44;;;;;;;5.72;5.22;;;9.10;99.90;;;;;;5066256;28;20218;-76
2021/12/25 07:16:12;;;;;;;5.75;5.25;;;9.00;99.90;;;;;;5052456;28;20287;-76
2021/12/25 07:18:39;;;;;;;4.90;4.50;;;9.00;99.90;;;;;;5067716;28;20233;-76
2021/12/25 07:21:07;;;;;;;5.32;4.82;;;8.90;99.90;;;;;;5063053;28;20201;-76
2021/12/25 07:23:35;;;;;;;6.07;5.47;;;8.80;99.90;;;;;;5057461;28;20843;-76
2021/12/25 07:26:03;;;;;;;5.63;5.22;;;8.80;99.90;;;;;;5063675;28;20297;-76
2021/12/25 07:28:30;;;;;;;6.30;5.72;;;8.70;99.90;;;;;;5052135;28;20205;-76
2021/12/25 07:31:00;;;;;;;6.00;5.50;;;8.60;99.90;;;;;;5055473;28;20756;-75
2021/12/25 07:33:28;;;;;;;6.90;6.15;;;8.50;99.90;;;;;;5060370;28;20200;-76
2021/12/25 07:35:55;;;;;;;7.10;6.50;;;8.40;99.90;;;;;;5059069;28;20205;-76
2021/12/25 07:38:22;;;;;;;7.13;6.43;;;8.40;99.90;;;;;;5053268;28;20203;-76
2021/12/25 07:40:51;;;;;;;6.60;6.00;;;8.30;99.90;;;;;;5056292;28;20202;-76
2021/12/25 07:43:18;;;;;;;6.05;5.40;;;8.30;99.90;;;;;;5051873;28;20197;-76
2021/12/25 07:45:47;;;;;;;6.40;5.63;;;8.40;99.90;;;;;;5050999;28;20226;-76
2021/12/25 07:48:14;;;;;;;5.68;5.13;;;8.40;99.90;;;;;;5058131;28;20194;-76
2021/12/25 07:50:41;;;;;;;5.88;5.03;;;8.40;99.90;;;;;;5061036;28;20199;-76
2021/12/25 07:53:10;;;;;;;5.28;4.88;;;8.40;99.90;;;;;;5052448;28;20197;-75
2021/12/25 07:55:38;;;;;;;6.50;5.55;;;8.40;99.90;;;;;;5060279;28;20694;-75
2021/12/25 07:58:07;;;;;;;5.93;5.38;;;8.50;99.90;;;;;;5050319;28;20199;-77
2021/12/25 08:00:34;;;;;;;5.32;4.82;;;8.50;99.90;;;;;;5057874;28;20251;-76
2021/12/25 08:03:01;;;;;;;5.90;5.35;;;8.50;99.90;;;;;;5054694;28;20226;-76
2021/12/25 08:05:29;;;;;;;5.47;4.97;;;8.50;99.90;;;;;;5051544;28;20201;-76
2021/12/25 08:07:56;;;;;;;5.30;4.80;;;8.50;99.90;;;;;;5054891;28;20331;-77
2021/12/25 08:10:23;;;;;;;5.90;5.22;;;8.50;99.90;;;;;;5056386;28;20233;-76
2021/12/25 08:12:53;;;;;;;5.25;4.13;;;8.60;99.90;;;;;;5055126;28;20195;-76
2021/12/25 08:15:23;;;;;;;5.95;5.38;;;8.60;99.90;;;;;;5058595;28;20198;-77
2021/12/25 08:17:50;;;;;;;5.78;5.25;;;8.60;99.90;;;;;;5049155;28;20290;-76
2021/12/25 08:20:17;;;;;;;5.68;4.80;;;8.60;99.90;;;;;;5049761;28;20227;-76
2021/12/25 08:22:44;;;;;;;5.55;5.03;;;8.60;99.90;;;;;;5054119;28;20193;-76
2021/12/25 08:25:13;;;;;;;5.85;5.32;;;8.60;99.90;;;;;;5063279;28;20209;-76
2021/12/25 08:27:43;;;;;;;5.30;4.90;;;8.60;99.90;;;;;;5057064;28;20725;-75
2021/12/25 08:30:14;;;;;;;5.18;4.65;;;8.60;99.90;;;;;;5058410;28;20240;-76
2021/12/25 08:32:43;;;;;;;5.65;4.90;;;8.60;99.90;;;;;;5059096;28;20230;-77
2021/12/25 08:35:12;;;;;;;5.60;5.15;;;8.60;99.90;;;;;;5061424;28;20224;-76
2021/12/25 08:37:39;;;;;;;6.07;5.57;;;8.70;99.90;;;;;;5056507;28;20232;-77
2021/12/25 08:40:08;;;;;;;5.40;4.90;;;8.70;99.90;;;;;;5050326;28;20574;-71
2021/12/25 08:42:36;;;;;;;5.63;4.70;;;8.70;99.90;;;;;;5066034;28;20215;-71
2021/12/25 08:45:19;;;;;;;4.55;4.18;;;8.80;99.90;;;;;;5064608;28;20297;-76
2021/12/25 08:47:48;;;;;;;4.97;4.30;;;8.80;99.90;;;;;;5048798;28;20561;-77
2021/12/25 08:50:14;;;;;;;5.60;4.60;;;8.80;99.90;;;;;;5050212;28;20196;-79
2021/12/25 08:52:41;;;;;;;4.20;3.80;;;8.80;99.90;;;;;;5057316;28;20611;-79
2021/12/25 08:55:09;;;;;;;5.30;4.07;;;8.80;99.90;;;;;;5051015;28;20759;-79
2021/12/25 08:57:37;;;;;;;4.13;3.67;;;8.80;99.90;;;;;;5060050;28;20235;-79
2021/12/25 09:00:05;;;;;;;4.20;3.38;;;8.80;99.90;;;;;;5052138;28;20226;-81
2021/12/25 09:02:32;;;;;;;3.65;3.35;;;8.80;99.90;;;;;;5054707;28;20243;-80
2021/12/25 09:05:00;;;;;;;3.72;3.42;;;8.80;99.90;;;;;;5057851;28;20229;-79
2021/12/25 09:07:27;;;;;;;5.13;3.13;;;8.90;99.90;;;;;;5056227;28;20197;-78
2021/12/25 09:09:55;;;;;;;4.15;3.75;;;8.90;99.90;;;;;;5052368;28;20195;-75
2021/12/25 09:12:23;;;;;;;4.18;3.13;;;9.00;99.90;;;;;;5059279;28;20774;-81
2021/12/25 09:14:51;;;;;;;6.35;4.30;;;9.10;99.90;;;;;;5048961;28;20292;-77
2021/12/25 09:17:18;;;;;;;5.50;3.88;;;9.10;99.90;;;;;;5052371;28;20201;-78
2021/12/25 09:19:45;;;;;;;4.22;3.53;;;9.10;99.90;;;;;;5053397;28;20233;-78
2021/12/25 09:22:13;;;;;;;4.15;3.25;;;9.20;99.90;;;;;;5051408;28;20226;-78
2021/12/25 09:24:41;;;;;;;4.00;3.70;;;9.20;99.90;;;;;;5054534;28;20300;-78
2021/12/25 09:27:09;;;;;;;3.45;3.15;;;9.30;99.90;;;;;;5056259;28;20290;-78
2021/12/25 09:29:36;;;;;;;3.35;3.05;;;9.40;99.90;;;;;;5056811;28;20293;-78
2021/12/25 09:32:04;;;;;;;3.40;3.10;;;9.40;99.90;;;;;;5052555;28;20206;-78
2021/12/25 09:34:31;;;;;;;4.05;3.10;;;9.40;99.90;;;;;;5049335;28;20307;-78
2021/12/25 09:36:58;;;;;;;4.18;3.30;;;9.50;99.90;;;;;;5048584;28;20299;-78
2021/12/25 09:39:26;;;;;;;4.15;3.30;;;9.50;99.90;;;;;;5055403;28;20218;-78
2021/12/25 09:41:53;;;;;;;3.60;3.30;;;9.50;99.90;;;;;;5051500;28;20247;-79
2021/12/25 09:44:20;;;;;;;3.50;3.20;;;9.50;99.90;;;;;;5053875;28;20578;-78
2021/12/25 09:46:47;;;;;;;3.47;3.17;;;9.60;99.90;;;;;;5055067;28;20699;-78
2021/12/25 09:49:14;;;;;;;3.38;3.08;;;9.60;99.90;;;;;;5051194;28;20210;-79
2021/12/25 09:51:42;;;;;;;3.55;3.25;;;9.60;99.90;;;;;;5053053;28;20248;-80
2021/12/25 09:54:12;;;;;;;3.53;3.22;;;9.70;99.90;;;;;;5054306;28;20688;-79
2021/12/25 09:56:42;;;;;;;3.47;3.00;;;9.70;99.90;;;;;;5057554;28;20222;-81
2021/12/25 09:59:11;;;;;;;3.35;3.15;;;9.70;99.90;;;;;;5047231;28;20274;-79
2021/12/25 10:01:40;;;;;;;5.20;4.22;;;9.60;99.90;;;;;;5051600;28;20217;-82
2021/12/25 10:04:09;;;;;;;4.43;3.80;;;9.50;99.90;;;;;;5049383;28;20228;-77
2021/12/25 10:06:38;;;;;;;3.95;3.40;;;9.50;99.90;;;;;;5058406;28;20217;-80
2021/12/25 10:09:13;;;;;;;5.45;4.05;;;9.40;99.90;;;;;;5051015;28;20249;-78
2021/12/25 10:14:34;;;;;;;4.35;3.50;;;9.50;99.90;;;;;;5110894;27;20560;-78
2021/12/25 10:17:13;;;;;;;3.75;3.20;;;9.50;99.90;;;;;;5113422;28;20201;-79
2021/12/25 10:19:41;;;;;;;3.75;3.33;;;9.50;99.90;;;;;;5103856;28;20197;-79
2021/12/25 10:22:11;;;;;;;3.58;3.28;;;9.40;99.90;;;;;;5100885;28;20191;-88
2021/12/25 10:24:48;;;;;;;4.32;2.92;;;9.50;99.90;;;;;;5107663;28;20271;-86
2021/12/25 10:27:17;;;;;;;2.50;2.30;;;9.50;99.90;;;;;;5118906;28;20186;-87
2021/12/25 10:29:46;;;;;;;1.98;1.83;;;9.50;99.90;;;;;;5120725;28;20201;-88
2021/12/25 10:32:20;;;;;;;2.05;1.85;;;9.60;99.90;;;;;;5114120;28;20203;-87
2021/12/25 10:34:48;;;;;;;2.90;2.60;;;9.60;99.90;;;;;;5112599;28;20211;-87
2021/12/25 10:37:18;;;;;;;3.10;2.10;;;9.70;99.90;;;;;;5112939;28;20198;-80
2021/12/25 10:39:46;;;;;;;2.22;1.98;;;9.80;99.90;;;;;;5097239;28;20557;-79
2021/12/25 10:42:18;;;;;;;2.50;2.30;;;9.90;99.90;;;;;;5101434;28;20230;-78
2021/12/25 10:44:48;;;;;;;2.35;2.00;;;10.00;99.90;;;;;;5086888;28;20222;-79
2021/12/25 10:47:17;;;;;;;2.30;1.92;;;10.00;99.90;;;;;;5088524;28;20803;-88
2021/12/25 10:49:46;;;;;;;2.72;2.30;;;10.10;99.90;;;;;;5094347;28;20202;-80
2021/12/25 10:52:19;;;;;;;2.95;2.65;;;10.10;99.90;;;;;;5091184;28;20229;-79
2021/12/25 10:54:48;;;;;;;2.65;2.45;;;10.00;99.90;;;;;;5088195;28;20208;-79
2021/12/25 10:57:31;;;;;;;2.60;2.40;;;10.00;99.90;;;;;;5091880;28;20190;-80
2021/12/25 10:59:59;;;;;;;2.30;2.10;;;10.00;99.90;;;;;;5100942;28;20219;-81
2021/12/25 11:02:36;;;;;;;3.08;2.42;;;10.00;99.90;;;;;;5086398;28;20689;-79
2021/12/25 11:05:16;;;;;;;4.78;3.22;;;10.00;99.90;;;;;;5087400;28;20196;-80
2021/12/25 11:07:43;;;;;;;2.97;2.75;;;10.10;99.90;;;;;;5098798;28;20194;-80
2021/12/25 11:10:13;;;;;;;3.30;2.70;;;10.10;99.90;;;;;;5095979;28;20202;-80
2021/12/25 11:12:40;;;;;;;4.28;3.42;;;10.30;99.90;;;;;;5097449;28;20310;-80
2021/12/25 11:15:17;;;;;;;5.60;3.33;;;10.40;99.90;;;;;;5088419;28;20195;-80
2021/12/25 11:17:51;;;;;;;3.40;3.00;;;10.40;99.90;;;;;;5094902;28;20450;-80
2021/12/25 11:20:26;;;;;;;3.05;2.58;;;10.40;99.90;;;;;;5091211;28;20535;-80
2021/12/25 11:22:55;;;;;;;3.15;2.85;;;10.30;99.90;;;;;;5092264;28;20239;-80
2021/12/25 11:25:25;;;;;;;2.90;2.70;;;10.30;99.90;;;;;;5089833;28;20647;-80
2021/12/25 11:27:52;;;;;;;2.47;2.28;;;10.40;99.90;;;;;;5079298;28;20205;-81
2021/12/25 11:30:23;;;;;;;2.85;2.65;;;10.50;99.90;;;;;;5074701;28;20200;-79
2021/12/25 11:32:52;;;;;;;3.50;2.50;;;10.50;99.90;;;;;;5078385;28;20229;-79
2021/12/25 11:35:20;;;;;;;3.42;2.70;;;10.50;99.90;;;;;;5089129;28;20198;-79
2021/12/25 11:37:50;;;;;;;3.72;2.90;;;10.40;99.90;;;;;;5080804;28;20207;-79
2021/12/25 11:40:18;;;;;;;3.00;2.80;;;10.50;99.90;;;;;;5080695;28;20192;-79
2021/12/25 11:42:48;;;;;;;3.17;2.97;;;10.50;99.90;;;;;;5072890;28;20621;-78
2021/12/25 11:45:18;;;;;;;2.70;2.50;;;10.60;99.90;;;;;;5083188;28;20670;-79
2021/12/25 11:47:51;;;;;;;3.00;2.70;;;10.80;99.90;;;;;;5079674;28;20650;-80
2021/12/25 11:50:21;;;;;;;2.72;2.40;;;10.90;99.90;;;;;;5083965;28;20220;-78
2021/12/25 11:53:06;;;;;;;2.55;2.35;;;11.10;99.90;;;;;;5073716;28;20207;-79
2021/12/25 11:55:52;;;;;;;3.20;2.30;;;11.30;99.90;;;;;;5074554;28;20666;-78
2021/12/25 11:58:39;;;;;;;2.40;2.20;;;11.50;99.90;;;;;;5073395;28;20650;-79
2021/12/25 12:01:41;;;;;;;2.90;2.40;;;11.70;99.90;;;;;;5073994;28;20286;-79
2021/12/25 12:04:17;;;;;;;3.35;3.05;;;11.70;99.90;;;;;;5047844;28;20367;-79
2021/12/25 12:07:03;;;;;;;3.80;3.50;;;11.50;99.90;;;;;;5078140;28;20240;-78
2021/12/25 12:09:34;;;;;;;3.90;3.13;;;11.50;99.90;;;;;;5076494;28;20654;-78
2021/12/25 12:12:17;;;;;;;4.20;3.80;;;11.30;99.90;;;;;;5075600;28;20242;-78
2021/12/25 12:14:45;;;;;;;4.38;3.92;;;11.20;99.90;;;;;;5078551;28;20972;-78
2021/12/25 12:17:27;;;;;;;4.78;3.88;;;11.10;99.90;;;;;;5074848;28;20192;-78
2021/12/25 12:19:56;;;;;;;4.30;3.90;;;11.00;99.90;;;;;;5074211;28;20192;-78
2021/12/25 12:22:50;;;;;;;4.00;3.70;;;11.00;99.90;;;;;;5076772;28;20196;-79
2021/12/25 12:25:26;;;;;;;4.70;4.30;;;11.00;99.90;;;;;;5072879;28;20200;-78
2021/12/25 12:27:55;;;;;;;3.90;3.60;;;10.90;99.90;;;;;;5077022;28;20241;-79
2021/12/25 12:30:48;;;;;;;3.88;3.53;;;10.90;99.90;;;;;;5080999;28;20680;-78
2021/12/25 12:33:36;;;;;;;4.35;3.80;;;10.90;99.90;;;;;;5074319;28;20223;-79
2021/12/25 12:36:29;;;;;;;3.85;3.40;;;10.80;99.90;;;;;;5074327;28;20296;-78
2021/12/25 12:39:18;;;;;;;4.60;4.00;;;10.70;99.90;;;;;;5070013;28;20196;-76
2021/12/25 12:41:53;;;;;;;4.38;3.97;;;10.70;99.90;;;;;;5074636;28;20192;-79
2021/12/25 12:44:30;;;;;;;4.05;3.65;;;10.70;99.90;;;;;;5077961;28;20215;-79
2021/12/25 12:47:02;;;;;;;3.65;3.35;;;10.70;99.90;;;;;;5078011;28;20284;-79
2021/12/25 12:49:45;;;;;;;4.40;4.00;;;10.70;99.90;;;;;;5073882;28;20211;-79
2021/12/25 12:52:20;;;;;;;4.03;3.63;;;10.70;99.90;;;;;;5066773;28;20210;-79
2021/12/25 12:54:49;;;;;;;4.57;4.18;;;10.70;99.90;;;;;;5076415;28;20250;-78
2021/12/25 12:57:22;;;;;;;4.70;4.30;;;10.70;99.90;;;;;;5077554;28;20221;-78
2021/12/25 12:59:51;;;;;;;4.75;3.83;;;10.70;99.90;;;;;;5071101;28;20281;-80
2021/12/25 13:02:20;;;;;;;4.28;3.88;;;10.70;99.90;;;;;;5076595;28;20314;-79
2021/12/25 13:04:49;;;;;;;4.53;4.10;;;10.70;99.90;;;;;;5071730;28;20192;-77
2021/12/25 13:07:20;;;;;;;4.85;4.45;;;10.60;99.90;;;;;;5075392;28;20203;-77
2021/12/25 13:09:57;;;;;;;5.95;4.70;;;10.50;99.90;;;;;;5074220;28;20709;-79
2021/12/25 13:12:35;;;;;;;5.00;4.60;;;10.50;99.90;;;;;;5072507;28;20928;-79
2021/12/25 13:15:05;;;;;;;4.68;4.35;;;10.50;99.90;;;;;;5071691;28;20245;-79
2021/12/25 13:17:33;;;;;;;5.07;4.68;;;10.50;99.90;;;;;;5076454;28;20595;-79
2021/12/25 13:20:00;;;;;;;5.60;5.10;;;10.50;99.90;;;;;;5085956;28;20245;-79
2021/12/25 13:22:29;;;;;;;5.38;4.90;;;10.60;99.90;;;;;;5073131;28;20705;-79
2021/12/25 13:25:05;;;;;;;5.65;4.65;;;10.60;99.90;;;;;;5076080;28;20218;-78
2021/12/25 13:27:32;;;;;;;5.28;4.68;;;10.50;99.90;;;;;;5078729;28;20199;-78
2021/12/25 13:30:06;;;;;;;4.95;4.55;;;10.60;99.90;;;;;;5074382;28;20196;-77
2021/12/25 13:32:33;;;;;;;6.30;5.70;;;10.60;99.90;;;;;;5071460;28;20665;-79
2021/12/25 13:35:00;;;;;;;5.13;4.72;;;10.60;99.90;;;;;;5073288;28;20310;-79
2021/12/25 13:37:29;;;;;;;6.65;5.20;;;10.60;99.90;;;;;;5071125;28;20699;-77
2021/12/25 13:39:56;;;;;;;6.28;5.75;;;10.60;99.90;;;;;;5075310;28;20209;-79
2021/12/25 13:42:24;;;;;;;6.68;6.10;;;10.70;99.90;;;;;;5073335;28;20216;-83
2021/12/25 13:44:51;;;;;;;6.10;5.60;;;10.70;99.90;;;;;;5079602;28;20289;-77